sensor_id;sensor_type;location;lat;lon;timestamp;P1;durP1;ratioP1;P2;durP2;ratioP2
13067;SDS011;6600;51.362;6.686;2023-05-14T00:01:07;4.23;;;3.83;;
13067;SDS011;6600;51.362;6.686;2023-05-14T00:03:32;5.10;;;4.17;;
13067;SDS011;6600;51.362;6.686;2023-05-14T00:05:58;5.80;;;4.20;;
13067;SDS011;6600;51.362;6.686;2023-05-14T00:08:23;4.67;;;4.17;;
13067;SDS011;6600;51.362;6.686;2023-05-14T00:10:48;6.43;;;4.37;;
13067;SDS011;6600;51.362;6.686;2023-05-14T00:13:13;6.20;;;4.57;;
13067;SDS011;6600;51.362;6.686;2023-05-14T00:15:39;5.63;;;4.27;;
13067;SDS011;6600;51.362;6.686;2023-05-14T00:18:04;5.33;;;4.40;;
13067;SDS011;6600;51.362;6.686;2023-05-14T00:20:31;3.43;;;3.03;;
13067;SDS011;6600;51.362;6.686;2023-05-14T00:22:56;5.17;;;3.77;;
13067;SDS011;6600;51.362;6.686;2023-05-14T00:25:21;5.40;;;4.13;;
13067;SDS011;6600;51.362;6.686;2023-05-14T00:27:47;5.03;;;4.17;;
13067;SDS011;6600;51.362;6.686;2023-05-14T00:30:12;5.27;;;3.73;;
13067;SDS011;6600;51.362;6.686;2023-05-14T00:32:37;5.50;;;4.87;;
13067;SDS011;6600;51.362;6.686;2023-05-14T00:35:03;6.37;;;4.37;;
13067;SDS011;6600;51.362;6.686;2023-05-14T00:37:28;5.20;;;4.43;;
13067;SDS011;6600;51.362;6.686;2023-05-14T00:39:54;5.07;;;3.70;;
13067;SDS011;6600;51.362;6.686;2023-05-14T00:42:19;5.83;;;4.20;;
13067;SDS011;6600;51.362;6.686;2023-05-14T00:44:45;5.57;;;4.07;;
13067;SDS011;6600;51.362;6.686;2023-05-14T00:47:10;4.30;;;3.90;;
13067;SDS011;6600;51.362;6.686;2023-05-14T00:49:36;7.77;;;4.57;;
13067;SDS011;6600;51.362;6.686;2023-05-14T00:52:03;7.80;;;4.93;;
13067;SDS011;6600;51.362;6.686;2023-05-14T00:54:29;8.03;;;5.37;;
13067;SDS011;6600;51.362;6.686;2023-05-14T00:56:54;4.70;;;4.20;;
13067;SDS011;6600;51.362;6.686;2023-05-14T00:59:20;4.83;;;4.23;;
13067;SDS011;6600;51.362;6.686;2023-05-14T01:01:45;5.17;;;3.83;;
13067;SDS011;6600;51.362;6.686;2023-05-14T01:04:10;9.93;;;5.03;;
13067;SDS011;6600;51.362;6.686;2023-05-14T01:15:20;5.80;;;4.40;;
13067;SDS011;6600;51.362;6.686;2023-05-14T01:17:54;6.30;;;4.50;;
13067;SDS011;6600;51.362;6.686;2023-05-14T01:20:28;5.10;;;4.00;;
13067;SDS011;6600;51.362;6.686;2023-05-14T01:22:53;5.73;;;4.70;;
13067;SDS011;6600;51.362;6.686;2023-05-14T01:25:19;6.73;;;3.97;;
13067;SDS011;6600;51.362;6.686;2023-05-14T01:27:48;7.13;;;4.87;;
13067;SDS011;6600;51.362;6.686;2023-05-14T01:30:23;6.93;;;4.43;;
13067;SDS011;6600;51.362;6.686;2023-05-14T01:32:57;6.27;;;4.40;;
13067;SDS011;6600;51.362;6.686;2023-05-14T01:35:27;7.53;;;4.37;;
13067;SDS011;6600;51.362;6.686;2023-05-14T01:38:00;6.43;;;3.73;;
13067;SDS011;6600;51.362;6.686;2023-05-14T01:40:28;5.23;;;4.27;;
13067;SDS011;6600;51.362;6.686;2023-05-14T01:42:55;6.83;;;4.27;;
13067;SDS011;6600;51.362;6.686;2023-05-14T01:45:21;5.47;;;4.47;;
13067;SDS011;6600;51.362;6.686;2023-05-14T01:47:48;5.20;;;3.70;;
13067;SDS011;6600;51.362;6.686;2023-05-14T01:50:13;8.07;;;4.63;;
13067;SDS011;6600;51.362;6.686;2023-05-14T01:52:39;7.37;;;4.93;;
13067;SDS011;6600;51.362;6.686;2023-05-14T01:55:04;5.10;;;4.50;;
13067;SDS011;6600;51.362;6.686;2023-05-14T01:57:30;8.80;;;4.70;;
13067;SDS011;6600;51.362;6.686;2023-05-14T01:59:55;4.93;;;4.07;;
13067;SDS011;6600;51.362;6.686;2023-05-14T02:02:21;9.70;;;4.90;;
13067;SDS011;6600;51.362;6.686;2023-05-14T02:04:46;6.03;;;4.07;;
13067;SDS011;6600;51.362;6.686;2023-05-14T02:07:12;6.23;;;4.40;;
13067;SDS011;6600;51.362;6.686;2023-05-14T02:09:37;3.97;;;3.57;;
13067;SDS011;6600;51.362;6.686;2023-05-14T02:12:04;4.70;;;3.60;;
13067;SDS011;6600;51.362;6.686;2023-05-14T02:14:29;5.73;;;4.13;;
13067;SDS011;6600;51.362;6.686;2023-05-14T02:16:55;7.07;;;4.50;;
13067;SDS011;6600;51.362;6.686;2023-05-14T02:19:20;6.00;;;4.33;;
13067;SDS011;6600;51.362;6.686;2023-05-14T02:21:46;4.47;;;3.77;;
13067;SDS011;6600;51.362;6.686;2023-05-14T02:24:12;5.57;;;4.13;;
13067;SDS011;6600;51.362;6.686;2023-05-14T02:26:37;5.80;;;4.03;;
13067;SDS011;6600;51.362;6.686;2023-05-14T02:29:03;4.93;;;3.90;;
13067;SDS011;6600;51.362;6.686;2023-05-14T02:31:28;7.47;;;4.53;;
13067;SDS011;6600;51.362;6.686;2023-05-14T02:33:53;7.30;;;4.13;;
13067;SDS011;6600;51.362;6.686;2023-05-14T02:36:19;5.63;;;4.30;;
13067;SDS011;6600;51.362;6.686;2023-05-14T02:38:44;8.33;;;5.47;;
13067;SDS011;6600;51.362;6.686;2023-05-14T02:41:09;6.23;;;4.73;;
13067;SDS011;6600;51.362;6.686;2023-05-14T02:43:35;8.07;;;4.67;;
13067;SDS011;6600;51.362;6.686;2023-05-14T02:46:00;5.53;;;4.27;;
13067;SDS011;6600;51.362;6.686;2023-05-14T02:48:25;5.50;;;4.53;;
13067;SDS011;6600;51.362;6.686;2023-05-14T02:50:51;5.43;;;4.80;;
13067;SDS011;6600;51.362;6.686;2023-05-14T02:53:16;5.80;;;4.70;;
13067;SDS011;6600;51.362;6.686;2023-05-14T02:55:42;8.00;;;5.03;;
13067;SDS011;6600;51.362;6.686;2023-05-14T02:58:07;7.43;;;5.43;;
13067;SDS011;6600;51.362;6.686;2023-05-14T03:00:33;9.23;;;5.17;;
13067;SDS011;6600;51.362;6.686;2023-05-14T03:02:58;7.97;;;5.40;;
13067;SDS011;6600;51.362;6.686;2023-05-14T03:05:23;7.97;;;4.80;;
13067;SDS011;6600;51.362;6.686;2023-05-14T03:07:50;6.27;;;4.97;;
13067;SDS011;6600;51.362;6.686;2023-05-14T03:10:15;7.37;;;5.13;;
13067;SDS011;6600;51.362;6.686;2023-05-14T03:12:41;6.77;;;5.13;;
13067;SDS011;6600;51.362;6.686;2023-05-14T03:15:06;7.67;;;5.13;;
13067;SDS011;6600;51.362;6.686;2023-05-14T03:17:32;7.00;;;4.73;;
13067;SDS011;6600;51.362;6.686;2023-05-14T03:19:58;7.73;;;5.33;;
13067;SDS011;6600;51.362;6.686;2023-05-14T03:22:23;8.30;;;4.97;;
13067;SDS011;6600;51.362;6.686;2023-05-14T03:24:48;7.73;;;5.33;;
13067;SDS011;6600;51.362;6.686;2023-05-14T03:27:14;6.93;;;4.23;;
13067;SDS011;6600;51.362;6.686;2023-05-14T03:29:39;8.47;;;5.87;;
13067;SDS011;6600;51.362;6.686;2023-05-14T03:32:05;5.90;;;4.90;;
13067;SDS011;6600;51.362;6.686;2023-05-14T03:34:30;7.67;;;5.50;;
13067;SDS011;6600;51.362;6.686;2023-05-14T03:36:56;5.97;;;5.23;;
13067;SDS011;6600;51.362;6.686;2023-05-14T03:39:21;5.47;;;4.63;;
13067;SDS011;6600;51.362;6.686;2023-05-14T03:41:47;7.23;;;4.83;;
13067;SDS011;6600;51.362;6.686;2023-05-14T03:44:12;5.77;;;5.13;;
13067;SDS011;6600;51.362;6.686;2023-05-14T03:46:38;7.20;;;4.67;;
13067;SDS011;6600;51.362;6.686;2023-05-14T03:49:03;8.37;;;4.70;;
13067;SDS011;6600;51.362;6.686;2023-05-14T03:51:28;7.70;;;5.53;;
13067;SDS011;6600;51.362;6.686;2023-05-14T03:53:55;7.03;;;4.70;;
13067;SDS011;6600;51.362;6.686;2023-05-14T03:56:22;7.47;;;4.87;;
13067;SDS011;6600;51.362;6.686;2023-05-14T03:58:48;5.97;;;4.57;;
13067;SDS011;6600;51.362;6.686;2023-05-14T04:01:13;7.23;;;5.33;;
13067;SDS011;6600;51.362;6.686;2023-05-14T04:03:38;7.03;;;5.10;;
13067;SDS011;6600;51.362;6.686;2023-05-14T04:06:03;8.30;;;6.10;;
13067;SDS011;6600;51.362;6.686;2023-05-14T04:08:29;6.67;;;5.67;;
13067;SDS011;6600;51.362;6.686;2023-05-14T04:10:55;10.23;;;5.40;;
13067;SDS011;6600;51.362;6.686;2023-05-14T04:13:20;7.57;;;5.23;;
13067;SDS011;6600;51.362;6.686;2023-05-14T04:15:45;5.67;;;5.07;;
13067;SDS011;6600;51.362;6.686;2023-05-14T04:18:11;8.50;;;5.43;;
13067;SDS011;6600;51.362;6.686;2023-05-14T04:20:36;10.03;;;6.03;;
13067;SDS011;6600;51.362;6.686;2023-05-14T04:23:02;6.90;;;5.50;;
13067;SDS011;6600;51.362;6.686;2023-05-14T04:25:27;8.17;;;5.80;;
13067;SDS011;6600;51.362;6.686;2023-05-14T04:27:53;7.70;;;5.70;;
13067;SDS011;6600;51.362;6.686;2023-05-14T04:30:18;6.27;;;4.47;;
13067;SDS011;6600;51.362;6.686;2023-05-14T04:32:44;7.20;;;5.03;;
13067;SDS011;6600;51.362;6.686;2023-05-14T04:35:09;7.03;;;5.43;;
13067;SDS011;6600;51.362;6.686;2023-05-14T04:37:35;6.13;;;5.53;;
13067;SDS011;6600;51.362;6.686;2023-05-14T04:40:00;10.10;;;6.27;;
13067;SDS011;6600;51.362;6.686;2023-05-14T04:42:26;7.27;;;4.93;;
13067;SDS011;6600;51.362;6.686;2023-05-14T04:44:51;6.37;;;5.43;;
13067;SDS011;6600;51.362;6.686;2023-05-14T04:47:16;9.27;;;6.17;;
13067;SDS011;6600;51.362;6.686;2023-05-14T04:49:42;10.07;;;6.03;;
13067;SDS011;6600;51.362;6.686;2023-05-14T04:52:07;8.93;;;5.80;;
13067;SDS011;6600;51.362;6.686;2023-05-14T04:54:33;8.70;;;6.10;;
13067;SDS011;6600;51.362;6.686;2023-05-14T04:56:58;8.27;;;5.43;;
13067;SDS011;6600;51.362;6.686;2023-05-14T04:59:27;10.43;;;6.97;;
13067;SDS011;6600;51.362;6.686;2023-05-14T05:01:53;7.50;;;5.57;;
13067;SDS011;6600;51.362;6.686;2023-05-14T05:04:18;8.30;;;5.63;;
13067;SDS011;6600;51.362;6.686;2023-05-14T05:06:44;8.43;;;5.97;;
13067;SDS011;6600;51.362;6.686;2023-05-14T05:09:09;6.77;;;5.50;;
13067;SDS011;6600;51.362;6.686;2023-05-14T05:11:34;8.23;;;5.90;;
13067;SDS011;6600;51.362;6.686;2023-05-14T05:14:00;9.80;;;6.53;;
13067;SDS011;6600;51.362;6.686;2023-05-14T05:16:25;10.30;;;6.70;;
13067;SDS011;6600;51.362;6.686;2023-05-14T05:18:50;7.47;;;5.37;;
13067;SDS011;6600;51.362;6.686;2023-05-14T05:21:16;7.63;;;6.07;;
13067;SDS011;6600;51.362;6.686;2023-05-14T05:23:41;7.97;;;6.57;;
13067;SDS011;6600;51.362;6.686;2023-05-14T05:26:06;7.77;;;5.67;;
13067;SDS011;6600;51.362;6.686;2023-05-14T05:28:32;11.00;;;6.67;;
13067;SDS011;6600;51.362;6.686;2023-05-14T05:30:57;7.10;;;5.90;;
13067;SDS011;6600;51.362;6.686;2023-05-14T05:33:22;7.97;;;5.83;;
13067;SDS011;6600;51.362;6.686;2023-05-14T05:35:48;7.23;;;6.20;;
13067;SDS011;6600;51.362;6.686;2023-05-14T05:38:14;7.33;;;5.50;;
13067;SDS011;6600;51.362;6.686;2023-05-14T05:40:40;8.57;;;6.30;;
13067;SDS011;6600;51.362;6.686;2023-05-14T05:43:05;9.23;;;6.30;;
13067;SDS011;6600;51.362;6.686;2023-05-14T05:45:30;10.20;;;7.23;;
13067;SDS011;6600;51.362;6.686;2023-05-14T05:47:56;9.13;;;5.93;;
13067;SDS011;6600;51.362;6.686;2023-05-14T05:50:21;6.53;;;5.30;;
13067;SDS011;6600;51.362;6.686;2023-05-14T05:52:46;8.17;;;6.27;;
13067;SDS011;6600;51.362;6.686;2023-05-14T05:55:12;8.43;;;6.53;;
13067;SDS011;6600;51.362;6.686;2023-05-14T05:57:37;7.77;;;6.53;;
13067;SDS011;6600;51.362;6.686;2023-05-14T06:00:03;8.60;;;5.67;;
13067;SDS011;6600;51.362;6.686;2023-05-14T06:02:37;8.90;;;5.53;;
13067;SDS011;6600;51.362;6.686;2023-05-14T06:05:02;9.73;;;6.33;;
13067;SDS011;6600;51.362;6.686;2023-05-14T06:07:28;6.87;;;5.27;;
13067;SDS011;6600;51.362;6.686;2023-05-14T06:09:53;8.07;;;6.03;;
13067;SDS011;6600;51.362;6.686;2023-05-14T06:12:18;10.33;;;6.77;;
13067;SDS011;6600;51.362;6.686;2023-05-14T06:14:44;11.30;;;6.73;;
13067;SDS011;6600;51.362;6.686;2023-05-14T06:17:10;10.17;;;6.93;;
13067;SDS011;6600;51.362;6.686;2023-05-14T06:19:35;9.13;;;6.90;;
13067;SDS011;6600;51.362;6.686;2023-05-14T06:22:01;7.93;;;6.27;;
13067;SDS011;6600;51.362;6.686;2023-05-14T06:24:26;9.10;;;5.73;;
13067;SDS011;6600;51.362;6.686;2023-05-14T06:26:52;7.30;;;5.83;;
13067;SDS011;6600;51.362;6.686;2023-05-14T06:29:17;7.67;;;5.77;;
13067;SDS011;6600;51.362;6.686;2023-05-14T06:31:42;7.10;;;6.00;;
13067;SDS011;6600;51.362;6.686;2023-05-14T06:34:08;10.57;;;7.47;;
13067;SDS011;6600;51.362;6.686;2023-05-14T06:36:33;11.23;;;7.27;;
13067;SDS011;6600;51.362;6.686;2023-05-14T06:38:58;8.60;;;5.83;;
13067;SDS011;6600;51.362;6.686;2023-05-14T06:41:24;8.20;;;6.80;;
13067;SDS011;6600;51.362;6.686;2023-05-14T06:43:50;8.37;;;5.60;;
13067;SDS011;6600;51.362;6.686;2023-05-14T06:46:15;8.63;;;6.67;;
13067;SDS011;6600;51.362;6.686;2023-05-14T06:48:40;10.10;;;6.07;;
13067;SDS011;6600;51.362;6.686;2023-05-14T06:51:06;8.90;;;7.13;;
13067;SDS011;6600;51.362;6.686;2023-05-14T06:53:31;8.00;;;6.50;;
13067;SDS011;6600;51.362;6.686;2023-05-14T06:55:56;10.00;;;7.40;;
13067;SDS011;6600;51.362;6.686;2023-05-14T06:58:22;11.67;;;8.10;;
13067;SDS011;6600;51.362;6.686;2023-05-14T07:00:47;9.97;;;6.87;;
13067;SDS011;6600;51.362;6.686;2023-05-14T07:03:12;11.53;;;6.67;;
13067;SDS011;6600;51.362;6.686;2023-05-14T07:05:38;9.23;;;7.07;;
13067;SDS011;6600;51.362;6.686;2023-05-14T07:08:04;9.67;;;6.83;;
13067;SDS011;6600;51.362;6.686;2023-05-14T07:10:30;10.17;;;7.23;;
13067;SDS011;6600;51.362;6.686;2023-05-14T07:12:55;14.37;;;7.37;;
13067;SDS011;6600;51.362;6.686;2023-05-14T07:15:21;9.97;;;6.70;;
13067;SDS011;6600;51.362;6.686;2023-05-14T07:17:46;11.07;;;7.47;;
13067;SDS011;6600;51.362;6.686;2023-05-14T07:20:11;11.13;;;7.70;;
13067;SDS011;6600;51.362;6.686;2023-05-14T07:22:37;9.60;;;7.03;;
13067;SDS011;6600;51.362;6.686;2023-05-14T07:25:02;10.07;;;7.47;;
13067;SDS011;6600;51.362;6.686;2023-05-14T07:27:28;10.97;;;6.57;;
13067;SDS011;6600;51.362;6.686;2023-05-14T07:29:53;8.77;;;7.00;;
13067;SDS011;6600;51.362;6.686;2023-05-14T07:32:18;9.80;;;7.33;;
13067;SDS011;6600;51.362;6.686;2023-05-14T07:34:44;10.23;;;7.40;;
13067;SDS011;6600;51.362;6.686;2023-05-14T07:37:10;10.00;;;7.37;;
13067;SDS011;6600;51.362;6.686;2023-05-14T07:39:35;13.17;;;7.70;;
13067;SDS011;6600;51.362;6.686;2023-05-14T07:42:01;14.10;;;7.90;;
13067;SDS011;6600;51.362;6.686;2023-05-14T07:44:26;10.33;;;7.23;;
13067;SDS011;6600;51.362;6.686;2023-05-14T07:46:51;10.63;;;7.57;;
13067;SDS011;6600;51.362;6.686;2023-05-14T07:49:17;10.90;;;7.60;;
13067;SDS011;6600;51.362;6.686;2023-05-14T07:51:42;9.63;;;7.40;;
13067;SDS011;6600;51.362;6.686;2023-05-14T07:54:07;9.63;;;6.93;;
13067;SDS011;6600;51.362;6.686;2023-05-14T07:56:33;9.07;;;6.50;;
13067;SDS011;6600;51.362;6.686;2023-05-14T07:58:58;12.10;;;7.67;;
13067;SDS011;6600;51.362;6.686;2023-05-14T08:01:23;9.03;;;7.30;;
13067;SDS011;6600;51.362;6.686;2023-05-14T08:03:49;9.07;;;7.20;;
13067;SDS011;6600;51.362;6.686;2023-05-14T08:06:14;9.63;;;6.97;;
13067;SDS011;6600;51.362;6.686;2023-05-14T08:08:40;10.27;;;6.80;;
13067;SDS011;6600;51.362;6.686;2023-05-14T08:11:05;8.87;;;6.60;;
13067;SDS011;6600;51.362;6.686;2023-05-14T08:13:30;10.93;;;7.20;;
13067;SDS011;6600;51.362;6.686;2023-05-14T08:15:56;10.83;;;7.30;;
13067;SDS011;6600;51.362;6.686;2023-05-14T08:18:21;8.77;;;6.40;;
13067;SDS011;6600;51.362;6.686;2023-05-14T08:20:46;8.83;;;6.77;;
13067;SDS011;6600;51.362;6.686;2023-05-14T08:23:12;9.97;;;6.93;;
13067;SDS011;6600;51.362;6.686;2023-05-14T08:25:37;7.00;;;5.63;;
13067;SDS011;6600;51.362;6.686;2023-05-14T08:28:03;7.40;;;5.30;;
13067;SDS011;6600;51.362;6.686;2023-05-14T08:30:28;8.83;;;6.20;;
13067;SDS011;6600;51.362;6.686;2023-05-14T08:32:54;7.30;;;5.13;;
13067;SDS011;6600;51.362;6.686;2023-05-14T08:35:19;5.33;;;4.83;;
13067;SDS011;6600;51.362;6.686;2023-05-14T08:37:45;6.37;;;4.67;;
13067;SDS011;6600;51.362;6.686;2023-05-14T08:40:10;7.27;;;5.47;;
13067;SDS011;6600;51.362;6.686;2023-05-14T08:42:39;6.90;;;5.07;;
13067;SDS011;6600;51.362;6.686;2023-05-14T08:45:05;6.20;;;4.30;;
13067;SDS011;6600;51.362;6.686;2023-05-14T08:47:41;5.37;;;4.40;;
13067;SDS011;6600;51.362;6.686;2023-05-14T08:50:11;7.17;;;5.07;;
13067;SDS011;6600;51.362;6.686;2023-05-14T08:52:36;5.70;;;4.50;;
13067;SDS011;6600;51.362;6.686;2023-05-14T08:55:03;4.70;;;4.20;;
13067;SDS011;6600;51.362;6.686;2023-05-14T08:57:29;6.20;;;4.57;;
13067;SDS011;6600;51.362;6.686;2023-05-14T08:59:56;5.37;;;4.67;;
13067;SDS011;6600;51.362;6.686;2023-05-14T09:02:23;7.90;;;4.63;;
13067;SDS011;6600;51.362;6.686;2023-05-14T09:04:54;8.57;;;5.00;;
13067;SDS011;6600;51.362;6.686;2023-05-14T09:07:21;6.00;;;4.60;;
13067;SDS011;6600;51.362;6.686;2023-05-14T09:09:47;5.53;;;5.03;;
13067;SDS011;6600;51.362;6.686;2023-05-14T09:12:13;5.47;;;4.67;;
13067;SDS011;6600;51.362;6.686;2023-05-14T09:14:38;7.23;;;5.10;;
13067;SDS011;6600;51.362;6.686;2023-05-14T09:17:04;5.83;;;4.43;;
13067;SDS011;6600;51.362;6.686;2023-05-14T09:19:29;5.77;;;4.33;;
13067;SDS011;6600;51.362;6.686;2023-05-14T09:21:55;7.07;;;4.93;;
13067;SDS011;6600;51.362;6.686;2023-05-14T09:24:24;6.70;;;5.00;;
13067;SDS011;6600;51.362;6.686;2023-05-14T09:26:55;7.03;;;4.50;;
13067;SDS011;6600;51.362;6.686;2023-05-14T09:29:24;7.27;;;5.07;;
13067;SDS011;6600;51.362;6.686;2023-05-14T09:31:50;5.53;;;4.67;;
13067;SDS011;6600;51.362;6.686;2023-05-14T09:34:26;7.97;;;4.97;;
13067;SDS011;6600;51.362;6.686;2023-05-14T09:36:54;5.50;;;4.57;;
13067;SDS011;6600;51.362;6.686;2023-05-14T09:39:21;4.63;;;3.70;;
13067;SDS011;6600;51.362;6.686;2023-05-14T09:41:48;5.40;;;3.93;;
13067;SDS011;6600;51.362;6.686;2023-05-14T09:44:13;5.07;;;4.30;;
13067;SDS011;6600;51.362;6.686;2023-05-14T09:46:39;5.13;;;4.10;;
13067;SDS011;6600;51.362;6.686;2023-05-14T09:49:04;4.20;;;3.80;;
13067;SDS011;6600;51.362;6.686;2023-05-14T09:51:30;4.87;;;3.47;;
13067;SDS011;6600;51.362;6.686;2023-05-14T09:53:56;3.93;;;3.53;;
13067;SDS011;6600;51.362;6.686;2023-05-14T09:56:21;4.07;;;3.40;;
13067;SDS011;6600;51.362;6.686;2023-05-14T09:58:47;3.27;;;2.80;;
13067;SDS011;6600;51.362;6.686;2023-05-14T10:01:13;3.20;;;2.90;;
13067;SDS011;6600;51.362;6.686;2023-05-14T10:03:42;3.00;;;2.63;;
13067;SDS011;6600;51.362;6.686;2023-05-14T10:06:08;4.23;;;3.27;;
13067;SDS011;6600;51.362;6.686;2023-05-14T10:08:39;3.47;;;3.17;;
13067;SDS011;6600;51.362;6.686;2023-05-14T10:11:10;3.73;;;3.13;;
13067;SDS011;6600;51.362;6.686;2023-05-14T10:13:39;3.83;;;2.60;;
13067;SDS011;6600;51.362;6.686;2023-05-14T10:16:18;2.17;;;1.80;;
13067;SDS011;6600;51.362;6.686;2023-05-14T10:19:00;2.73;;;2.13;;
13067;SDS011;6600;51.362;6.686;2023-05-14T10:21:30;1.60;;;1.50;;
13067;SDS011;6600;51.362;6.686;2023-05-14T10:24:00;2.27;;;1.80;;
13067;SDS011;6600;51.362;6.686;2023-05-14T10:26:26;3.03;;;1.93;;
13067;SDS011;6600;51.362;6.686;2023-05-14T10:28:52;1.97;;;1.80;;
13067;SDS011;6600;51.362;6.686;2023-05-14T10:31:21;2.00;;;1.80;;
13067;SDS011;6600;51.362;6.686;2023-05-14T10:33:47;2.03;;;1.83;;
13067;SDS011;6600;51.362;6.686;2023-05-14T10:36:15;1.77;;;1.67;;
13067;SDS011;6600;51.362;6.686;2023-05-14T10:38:44;2.13;;;1.93;;
13067;SDS011;6600;51.362;6.686;2023-05-14T10:41:11;2.00;;;1.90;;
13067;SDS011;6600;51.362;6.686;2023-05-14T10:43:39;2.37;;;1.90;;
13067;SDS011;6600;51.362;6.686;2023-05-14T10:46:07;1.73;;;1.63;;
13067;SDS011;6600;51.362;6.686;2023-05-14T10:48:33;2.30;;;2.10;;
13067;SDS011;6600;51.362;6.686;2023-05-14T10:51:00;1.90;;;1.80;;
13067;SDS011;6600;51.362;6.686;2023-05-14T10:53:30;1.80;;;1.70;;
13067;SDS011;6600;51.362;6.686;2023-05-14T10:58:36;2.03;;;1.77;;
13067;SDS011;6600;51.362;6.686;2023-05-14T11:01:04;2.27;;;2.07;;
13067;SDS011;6600;51.362;6.686;2023-05-14T11:03:31;4.23;;;2.70;;
13067;SDS011;6600;51.362;6.686;2023-05-14T11:06:02;2.63;;;2.23;;
13067;SDS011;6600;51.362;6.686;2023-05-14T11:08:28;2.63;;;2.10;;
13067;SDS011;6600;51.362;6.686;2023-05-14T11:10:55;2.70;;;2.33;;
13067;SDS011;6600;51.362;6.686;2023-05-14T11:13:21;2.63;;;2.43;;
13067;SDS011;6600;51.362;6.686;2023-05-14T11:15:46;3.57;;;2.40;;
13067;SDS011;6600;51.362;6.686;2023-05-14T11:18:13;3.20;;;2.17;;
13067;SDS011;6600;51.362;6.686;2023-05-14T11:20:50;2.77;;;2.20;;
13067;SDS011;6600;51.362;6.686;2023-05-14T11:23:16;2.53;;;2.27;;
13067;SDS011;6600;51.362;6.686;2023-05-14T11:25:41;2.37;;;2.17;;
13067;SDS011;6600;51.362;6.686;2023-05-14T11:28:07;2.17;;;2.00;;
13067;SDS011;6600;51.362;6.686;2023-05-14T11:30:32;3.97;;;1.80;;
13067;SDS011;6600;51.362;6.686;2023-05-14T11:32:58;2.47;;;2.30;;
13067;SDS011;6600;51.362;6.686;2023-05-14T11:35:24;3.27;;;1.90;;
13067;SDS011;6600;51.362;6.686;2023-05-14T11:37:50;2.13;;;1.93;;
13067;SDS011;6600;51.362;6.686;2023-05-14T11:40:16;1.60;;;1.50;;
13067;SDS011;6600;51.362;6.686;2023-05-14T11:42:41;1.63;;;1.53;;
13067;SDS011;6600;51.362;6.686;2023-05-14T11:45:09;1.63;;;1.53;;
13067;SDS011;6600;51.362;6.686;2023-05-14T11:47:35;1.47;;;1.40;;
13067;SDS011;6600;51.362;6.686;2023-05-14T11:50:01;1.57;;;1.47;;
13067;SDS011;6600;51.362;6.686;2023-05-14T11:52:27;2.10;;;1.97;;
13067;SDS011;6600;51.362;6.686;2023-05-14T11:54:53;1.60;;;1.50;;
13067;SDS011;6600;51.362;6.686;2023-05-14T11:57:18;2.83;;;1.77;;
13067;SDS011;6600;51.362;6.686;2023-05-14T11:59:45;1.50;;;1.40;;
13067;SDS011;6600;51.362;6.686;2023-05-14T12:02:13;1.80;;;1.70;;
13067;SDS011;6600;51.362;6.686;2023-05-14T12:04:41;3.07;;;1.70;;
13067;SDS011;6600;51.362;6.686;2023-05-14T12:07:08;1.90;;;1.80;;
13067;SDS011;6600;51.362;6.686;2023-05-14T12:09:38;1.83;;;1.70;;
13067;SDS011;6600;51.362;6.686;2023-05-14T12:12:09;2.27;;;1.33;;
13067;SDS011;6600;51.362;6.686;2023-05-14T12:14:36;2.00;;;1.60;;
13067;SDS011;6600;51.362;6.686;2023-05-14T12:17:08;1.70;;;1.60;;
13067;SDS011;6600;51.362;6.686;2023-05-14T12:19:38;3.53;;;1.73;;
13067;SDS011;6600;51.362;6.686;2023-05-14T12:22:05;1.63;;;1.53;;
13067;SDS011;6600;51.362;6.686;2023-05-14T12:24:30;1.30;;;1.30;;
13067;SDS011;6600;51.362;6.686;2023-05-14T12:26:55;1.33;;;1.23;;
13067;SDS011;6600;51.362;6.686;2023-05-14T12:29:21;1.73;;;1.43;;
13067;SDS011;6600;51.362;6.686;2023-05-14T12:31:47;2.00;;;1.50;;
13067;SDS011;6600;51.362;6.686;2023-05-14T12:34:14;1.77;;;1.40;;
13067;SDS011;6600;51.362;6.686;2023-05-14T12:36:40;1.73;;;1.63;;
13067;SDS011;6600;51.362;6.686;2023-05-14T12:39:06;1.53;;;1.40;;
13067;SDS011;6600;51.362;6.686;2023-05-14T12:41:32;2.00;;;1.60;;
13067;SDS011;6600;51.362;6.686;2023-05-14T12:43:58;5.60;;;1.97;;
13067;SDS011;6600;51.362;6.686;2023-05-14T12:46:24;2.23;;;1.60;;
13067;SDS011;6600;51.362;6.686;2023-05-14T12:48:51;1.80;;;1.70;;
13067;SDS011;6600;51.362;6.686;2023-05-14T12:51:16;2.10;;;1.80;;
13067;SDS011;6600;51.362;6.686;2023-05-14T12:53:42;1.70;;;1.60;;
13067;SDS011;6600;51.362;6.686;2023-05-14T12:56:07;1.70;;;1.50;;
13067;SDS011;6600;51.362;6.686;2023-05-14T12:58:33;1.80;;;1.50;;
13067;SDS011;6600;51.362;6.686;2023-05-14T13:00:58;1.60;;;1.50;;
13067;SDS011;6600;51.362;6.686;2023-05-14T13:03:24;3.03;;;1.90;;
13067;SDS011;6600;51.362;6.686;2023-05-14T13:05:50;2.73;;;1.63;;
13067;SDS011;6600;51.362;6.686;2023-05-14T13:08:16;1.80;;;1.70;;
13067;SDS011;6600;51.362;6.686;2023-05-14T13:10:44;2.00;;;1.80;;
13067;SDS011;6600;51.362;6.686;2023-05-14T13:13:10;1.57;;;1.47;;
13067;SDS011;6600;51.362;6.686;2023-05-14T13:15:36;1.57;;;1.47;;
13067;SDS011;6600;51.362;6.686;2023-05-14T13:18:02;1.70;;;1.60;;
13067;SDS011;6600;51.362;6.686;2023-05-14T13:20:28;1.60;;;1.50;;
13067;SDS011;6600;51.362;6.686;2023-05-14T13:22:55;1.70;;;1.50;;
13067;SDS011;6600;51.362;6.686;2023-05-14T13:25:20;2.73;;;2.07;;
13067;SDS011;6600;51.362;6.686;2023-05-14T13:27:46;1.70;;;1.60;;
13067;SDS011;6600;51.362;6.686;2023-05-14T13:30:11;3.30;;;1.80;;
13067;SDS011;6600;51.362;6.686;2023-05-14T13:32:37;2.63;;;1.50;;
13067;SDS011;6600;51.362;6.686;2023-05-14T13:35:02;1.50;;;1.40;;
13067;SDS011;6600;51.362;6.686;2023-05-14T13:37:27;1.87;;;1.13;;
13067;SDS011;6600;51.362;6.686;2023-05-14T13:39:53;1.70;;;1.60;;
13067;SDS011;6600;51.362;6.686;2023-05-14T13:42:19;1.80;;;1.70;;
13067;SDS011;6600;51.362;6.686;2023-05-14T13:44:44;1.70;;;1.60;;
13067;SDS011;6600;51.362;6.686;2023-05-14T13:47:10;1.70;;;1.60;;
13067;SDS011;6600;51.362;6.686;2023-05-14T13:49:35;1.90;;;1.70;;
13067;SDS011;6600;51.362;6.686;2023-05-14T13:52:00;1.73;;;1.63;;
13067;SDS011;6600;51.362;6.686;2023-05-14T13:54:26;1.30;;;1.30;;
13067;SDS011;6600;51.362;6.686;2023-05-14T13:56:51;1.70;;;1.60;;
13067;SDS011;6600;51.362;6.686;2023-05-14T13:59:17;1.57;;;1.47;;
13067;SDS011;6600;51.362;6.686;2023-05-14T14:01:42;1.50;;;1.40;;
13067;SDS011;6600;51.362;6.686;2023-05-14T14:04:08;1.80;;;1.70;;
13067;SDS011;6600;51.362;6.686;2023-05-14T14:06:34;1.73;;;1.63;;
13067;SDS011;6600;51.362;6.686;2023-05-14T14:08:59;1.70;;;1.60;;
13067;SDS011;6600;51.362;6.686;2023-05-14T14:11:25;1.70;;;1.60;;
13067;SDS011;6600;51.362;6.686;2023-05-14T14:13:50;1.60;;;1.50;;
13067;SDS011;6600;51.362;6.686;2023-05-14T14:16:16;1.40;;;1.27;;
13067;SDS011;6600;51.362;6.686;2023-05-14T14:18:41;1.70;;;1.60;;
13067;SDS011;6600;51.362;6.686;2023-05-14T14:21:07;2.27;;;1.73;;
13067;SDS011;6600;51.362;6.686;2023-05-14T14:23:33;1.70;;;1.60;;
13067;SDS011;6600;51.362;6.686;2023-05-14T14:25:59;1.67;;;1.57;;
13067;SDS011;6600;51.362;6.686;2023-05-14T14:28:24;1.60;;;1.50;;
13067;SDS011;6600;51.362;6.686;2023-05-14T14:30:50;2.00;;;1.67;;
13067;SDS011;6600;51.362;6.686;2023-05-14T14:33:15;1.70;;;1.60;;
13067;SDS011;6600;51.362;6.686;2023-05-14T14:35:40;1.87;;;1.70;;
13067;SDS011;6600;51.362;6.686;2023-05-14T14:38:06;1.93;;;1.80;;
13067;SDS011;6600;51.362;6.686;2023-05-14T14:40:31;1.80;;;1.70;;
13067;SDS011;6600;51.362;6.686;2023-05-14T14:42:58;3.00;;;1.63;;
13067;SDS011;6600;51.362;6.686;2023-05-14T14:45:23;1.63;;;1.53;;
13067;SDS011;6600;51.362;6.686;2023-05-14T14:47:48;1.70;;;1.60;;
13067;SDS011;6600;51.362;6.686;2023-05-14T14:50:14;1.50;;;1.40;;
13067;SDS011;6600;51.362;6.686;2023-05-14T14:52:40;2.93;;;1.80;;
13067;SDS011;6600;51.362;6.686;2023-05-14T14:55:08;2.67;;;1.93;;
13067;SDS011;6600;51.362;6.686;2023-05-14T14:57:33;2.00;;;1.80;;
13067;SDS011;6600;51.362;6.686;2023-05-14T14:59:59;3.37;;;1.67;;
13067;SDS011;6600;51.362;6.686;2023-05-14T15:02:24;2.57;;;1.70;;
13067;SDS011;6600;51.362;6.686;2023-05-14T15:04:50;2.90;;;1.70;;